Williamsburg, Iowa
Current Conditions -  °F | °C
As of 7:52 PM on Friday 24 Oct 2014 (Local Time) from KCID Reporting Station
Haze Haze  
Wind Chill: 57°   Ceiling: 2600
Heat Index: 57°   Visibility: 2mi
Dew Point: 57°   Wind: 5mph
Humidity: 100%   Direction: 190°S
Pressure: 29.94"   Gusts: NA
Location:  41.66°N, 92.01°W
Report Text: KCID 250052Z 19004KT 2SM BR BKN026 14/14 A2994 RMK AO2 SLP141 T01390139
Loading
Personal Weather Stations






























Interactive Weather Map New forecast layout! Learn more

10-Day Weather Forecast

Advertisements
Track Severe Weather on mobile